Monday, October 20, 2014
11:28 UTC
  |  Log In   |  Register Free
Airport Search:

Akron-Canton Regional Airport
(KCAK)

FAA data valid effective September 18, 2014 - November 13, 2014 (unless otherwise noted).

 
 
 
 
 
 
 
 
 
 
 
 
 
 

Current Aviation Weather for Akron-Canton Regional Airport (KCAK)

The most recent METAR observation for KCAK was updated at: 1108
METAR Summary (Translated METAR)
KCAK
201051Z 21010KT 10SM OVC100 08/03 A2997 RMK AO2 SLP152 T00830028 $
KAKR
201054Z AUTO 20012KT 10SM OVC095 09/03 A2996 RMK AO2 SLP147 T00890033
(7.4 nm NW from KCAK)
KBJJ
201056Z AUTO 21006KT 10SM OVC090 08/03 A2997 RMK AO2 SLP152 T00830033 TSNO
(20.3 nm SW from KCAK)
TAF Summary (Translated TAF)
KCAK
200528Z 2006/2106 19007KT P6SM BKN140 FM201400 20012G18KT P6SM VCSH BKN080 OVC120 FM202100 21012G18KT 5SM -SHRA BKN025 OVC040 FM210500 26007KT 3SM -SHRA BR BKN010 OVC025
  Airport Weather Conditions for KCAK

 Current Weather at CAK
47° F
Overcast
Southwest winds at 11.5 mph
CAK NOAA Radar

Pressure: 29.97 in
Humidity: 69%
Wind: Southwest at 11.5 MPH (10 KT)
Dew Point: 37.0°F
Visibility: 10.00 mi


Airport Weather Forecast for KCAK

Translated METAR and TAF for KCAK
Translated METAR for KCAK (1123 UTC 20 October 2014)
found at http://aviationweather.gov/adds/metars/
 
METAR text: KCAK 201051Z 21010KT 10SM OVC100 08/03 A2997 RMK AO2 SLP152 T00830028 $
Conditions at: KCAK (AKRON , OH, US) observed 1051 UTC 20 October 2014
Temperature: 8.3°C (47°F)
Dewpoint: 2.8°C (37°F) [RH = 68%]
Pressure (altimeter): 29.97 inches Hg (1015.0 mb)
[Sea-level pressure: 1015.2 mb]
Winds: from the SSW (210 degrees) at 12 MPH (10 knots; 5.2 m/s)
Visibility: 10 or more miles (16+ km)
Ceiling: 10000 feet AGL
Clouds: overcast cloud deck at 10000 feet AGL
Weather:
SOME DATA ABOVE MAY BE INACCURATE!!!
"$" is an indication the sensor requires maintenance
Translated TAF for KCAK
Forecast for: KCAK (AKRON , OH, US)
TAF Text: KCAK 200528Z 2006/2106 19007KT P6SM BKN140
Forecast period: 0600 to 1400 UTC 20 October 2014
Forecast type: FROM: standard forecast or significant change
Winds: from the S (190 degrees) at 8 MPH (7 knots; 3.6 m/s)
Visibility: 6 or more miles (10+ km)
Ceiling: 14000 feet AGL
Clouds: broken clouds at 14000 feet AGL
Weather: no significant weather forecast for this period
TAF Text: FM201400 20012G18KT P6SM VCSH BKN080 OVC120
Forecast period: 1400 to 2100 UTC 20 October 2014
Forecast type: FROM: standard forecast or significant change
Winds: from the SSW (200 degrees) at 14 MPH (12 knots; 6.2 m/s)
gusting to 21 MPH (18 knots; 9.4 m/s)
Visibility: 6 or more miles (10+ km)
Ceiling: 8000 feet AGL
Clouds: broken clouds at 8000 feet AGL
overcast cloud deck at 12000 feet AGL
Weather: VCSH  (showers in vicinity)
TAF Text: FM202100 21012G18KT 5SM -SHRA BKN025 OVC040
Forecast period: 2100 UTC 20 October 2014 to 0500 UTC 21 October 2014
Forecast type: FROM: standard forecast or significant change
Winds: from the SSW (210 degrees) at 14 MPH (12 knots; 6.2 m/s)
gusting to 21 MPH (18 knots; 9.4 m/s)
Visibility: 5 miles (8 km)
Ceiling: 2500 feet AGL
Clouds: broken clouds at 2500 feet AGL
overcast cloud deck at 4000 feet AGL
Weather: -SHRA  (light rain showers)
TAF Text: FM210500 26007KT 3SM -SHRA BR BKN010 OVC025
Forecast period: 0500 to 0600 UTC 21 October 2014
Forecast type: FROM: standard forecast or significant change
Winds: from the W (260 degrees) at 8 MPH (7 knots; 3.6 m/s)
Visibility: 3 miles (5 km)
Ceiling: 1000 feet AGL
Clouds: broken clouds at 1000 feet AGL
overcast cloud deck at 2500 feet AGL
Weather: -SHRA BR  (light rain showers, mist)

Find All Airport Services Find A Hotel Find A Rental Car Find A Golf Course Find A Restaurant $100 Hamburger



FBO's on the Field
FBO Company Facility Photos Services Transportation Aviation Fuel Prices: Prices include tax
Catering Weather Repair Courtesy Rental Type 100LL JetA JetA+ MOGAS 8087
 
Avflight Akron-Canton

This FBO has not yet been rated
FS:
Last Updated: Oct-02
Login to update fuel prices
SS:
Contact Avflight Akron-CantonMore FBO Information
 
McKinley Air, Inc.

Currently rated 4.4 by 4 people
FS: Phillips 66
Last Updated: Oct-16
Login to update fuel prices
SS:
Contact McKinley Air, Inc.More FBO Information
 
Add another FBO Facility Photos Catering Weather Repair Courtesy Rental Type 100LL JetA JetA+ MOGAS 8087
Services Transportation Aviation Fuel Prices: Prices include tax


model-print
model-print
model-print
model-print